Time;durP1;ratioP1;P1;durP2;ratioP2;P2;SDS_P1;SDS_P2;PMS_P1;PMS_P2;Temp;Humidity;BMP_temperature;BMP_pressure;BME280_temperature;BME280_humidity;BME280_pressure;Samples;Min_cycle;Max_cycle;Signal;HPM_P1;HPM_P2
2023/03/07 00:00:54;;;;;;;30.00;11.03;;;5.20;99.90;;;;;;5034789;28;20299;-79
2023/03/07 00:03:22;;;;;;;25.23;9.53;;;5.40;99.90;;;;;;5051814;28;20234;-80
2023/03/07 00:05:49;;;;;;;27.47;9.87;;;5.30;99.90;;;;;;5051135;28;20205;-76
2023/03/07 00:08:16;;;;;;;21.97;8.17;;;5.30;99.90;;;;;;5052470;28;20222;-82
2023/03/07 00:10:43;;;;;;;18.17;7.57;;;5.40;99.90;;;;;;5053567;28;20568;-83
2023/03/07 00:13:10;;;;;;;21.03;7.83;;;5.30;99.90;;;;;;5057424;28;20263;-79
2023/03/07 00:15:40;;;;;;;27.03;8.17;;;5.50;99.90;;;;;;5061707;28;20216;-83
2023/03/07 00:18:07;;;;;;;22.87;8.77;;;5.20;99.90;;;;;;5068510;28;20194;-85
2023/03/07 00:20:35;;;;;;;20.57;7.17;;;5.40;99.90;;;;;;5064721;28;20229;-82
2023/03/07 00:23:03;;;;;;;25.17;9.73;;;5.40;99.90;;;;;;5062557;28;20221;-82
2023/03/07 00:25:30;;;;;;;25.87;9.77;;;5.40;99.90;;;;;;5436515;22;20251;-79
2023/03/07 00:27:57;;;;;;;24.67;9.03;;;5.40;99.90;;;;;;5064473;28;20242;-80
2023/03/07 00:30:24;;;;;;;20.90;8.73;;;5.40;99.90;;;;;;5046012;28;20211;-81
2023/03/07 00:32:51;;;;;;;28.47;9.70;;;5.30;99.90;;;;;;5053619;28;20210;-80
2023/03/07 00:35:18;;;;;;;25.10;9.30;;;5.40;99.90;;;;;;5044701;28;20207;-80
2023/03/07 00:37:46;;;;;;;24.30;8.33;;;5.50;99.90;;;;;;5051614;28;20219;-80
2023/03/07 00:40:14;;;;;;;26.43;10.00;;;5.50;99.90;;;;;;5057758;28;20290;-80
2023/03/07 00:42:41;;;;;;;24.60;9.70;;;5.50;99.90;;;;;;5051306;28;20293;-80
2023/03/07 00:45:09;;;;;;;23.60;7.17;;;5.40;99.90;;;;;;5042585;28;20278;-80
2023/03/07 00:47:42;;;;;;;26.37;8.97;;;5.50;99.90;;;;;;5040125;28;20249;-80
2023/03/07 00:50:10;;;;;;;27.40;9.33;;;5.40;99.90;;;;;;5047791;28;20242;-80
2023/03/07 00:52:37;;;;;;;21.43;8.20;;;5.50;99.90;;;;;;5054477;28;20210;-80
2023/03/07 00:55:07;;;;;;;23.73;8.27;;;5.90;99.90;;;;;;5032930;28;20201;-80
2023/03/07 00:57:34;;;;;;;27.77;7.53;;;5.50;99.90;;;;;;5043825;28;20314;-80
2023/03/07 01:00:01;;;;;;;20.73;7.43;;;5.50;99.90;;;;;;5055302;28;20217;-80
2023/03/07 01:02:28;;;;;;;23.83;9.40;;;5.70;99.90;;;;;;5055316;28;20400;-81
2023/03/07 01:04:55;;;;;;;20.47;7.30;;;5.50;99.90;;;;;;5055502;28;20273;-81
2023/03/07 01:07:22;;;;;;;26.33;8.57;;;5.50;99.90;;;;;;5055026;28;20285;-80
2023/03/07 01:09:52;;;;;;;24.33;7.90;;;5.50;99.90;;;;;;5054188;28;20265;-80
2023/03/07 01:12:20;;;;;;;16.63;5.20;;;5.60;99.90;;;;;;5054245;28;20215;-81
2023/03/07 01:14:50;;;;;;;26.37;8.23;;;5.60;99.90;;;;;;5037196;28;20329;-80
2023/03/07 01:17:18;;;;;;;27.40;9.27;;;5.60;99.90;;;;;;5043894;28;20223;-80
2023/03/07 01:19:45;;;;;;;25.43;9.17;;;5.60;99.90;;;;;;5057801;28;20227;-80
2023/03/07 01:22:12;;;;;;;22.97;7.90;;;5.50;99.90;;;;;;5042685;28;20206;-80
2023/03/07 01:24:39;;;;;;;21.57;8.27;;;5.40;99.90;;;;;;5047206;28;20219;-79
2023/03/07 01:27:06;;;;;;;24.33;10.33;;;5.60;99.90;;;;;;5054218;28;20266;-79
2023/03/07 01:29:35;;;;;;;19.50;7.53;;;5.70;99.90;;;;;;5066819;28;20298;-80
2023/03/07 01:32:01;;;;;;;26.93;10.17;;;5.80;99.90;;;;;;5043738;28;20297;-79
2023/03/07 01:34:28;;;;;;;25.10;10.83;;;6.10;99.90;;;;;;5056385;28;20203;-80
2023/03/07 01:36:55;;;;;;;26.27;9.37;;;6.10;99.90;;;;;;5037174;28;20224;-80
2023/03/07 01:39:22;;;;;;;26.07;10.30;;;5.70;99.90;;;;;;5054525;28;20217;-80
2023/03/07 01:41:54;;;;;;;25.60;10.07;;;5.60;99.90;;;;;;5051589;28;20569;-79
2023/03/07 01:44:26;;;;;;;25.87;12.60;;;5.70;99.90;;;;;;5050290;28;20278;-80
2023/03/07 01:46:55;;;;;;;29.30;11.77;;;5.90;99.90;;;;;;5045232;28;20316;-80
2023/03/07 01:49:49;;;;;;;22.00;9.40;;;5.70;99.90;;;;;;5049194;28;20653;-79
2023/03/07 01:52:20;;;;;;;22.97;9.73;;;5.70;99.90;;;;;;5056380;28;20782;-79
2023/03/07 01:54:55;;;;;;;26.43;9.93;;;5.70;99.90;;;;;;5053965;28;20210;-79
2023/03/07 01:57:27;;;;;;;19.77;6.67;;;5.70;99.90;;;;;;5046441;28;20231;-79
2023/03/07 01:59:57;;;;;;;25.83;10.20;;;5.70;99.90;;;;;;5036330;28;20212;-79
2023/03/07 02:02:26;;;;;;;19.83;7.50;;;5.70;99.90;;;;;;5043006;28;20216;-79
2023/03/07 02:04:58;;;;;;;22.13;9.20;;;5.90;99.90;;;;;;5058389;28;20234;-80
2023/03/07 03:40:40;;;;;;;25.33;8.07;;;5.50;99.90;;;;;;5055675;28;20194;-80
2023/03/07 03:43:07;;;;;;;25.00;8.43;;;5.70;99.90;;;;;;5034060;28;20221;-79
2023/03/07 03:45:34;;;;;;;23.97;8.47;;;5.50;99.90;;;;;;5036340;28;20237;-81
2023/03/07 03:48:01;;;;;;;22.90;8.73;;;5.60;99.90;;;;;;5040211;28;20229;-81
2023/03/07 03:50:28;;;;;;;18.97;6.40;;;5.50;99.90;;;;;;5032982;28;20302;-80
2023/03/07 03:52:55;;;;;;;16.50;6.37;;;5.70;99.90;;;;;;5033393;28;20214;-80
2023/03/07 03:55:22;;;;;;;22.40;6.97;;;5.90;99.90;;;;;;5040156;28;20202;-80
2023/03/07 03:57:50;;;;;;;24.70;8.70;;;5.50;99.90;;;;;;5038339;28;20238;-81
2023/03/07 04:00:18;;;;;;;22.50;8.43;;;5.70;99.90;;;;;;5028355;28;20219;-81
2023/03/07 04:02:46;;;;;;;24.70;8.33;;;5.70;99.90;;;;;;5052269;28;20201;-78
2023/03/07 04:05:17;;;;;;;22.30;7.30;;;5.70;99.90;;;;;;5058204;28;20210;-80
2023/03/07 04:07:44;;;;;;;21.27;7.13;;;5.70;99.90;;;;;;5035456;28;20235;-80
2023/03/07 04:10:11;;;;;;;24.53;7.33;;;5.70;99.90;;;;;;5035814;28;20221;-81
2023/03/07 04:12:38;;;;;;;19.83;6.93;;;6.50;99.90;;;;;;5038094;28;20214;-81
2023/03/07 04:15:08;;;;;;;21.10;6.70;;;5.90;99.90;;;;;;5038573;28;20206;-80
2023/03/07 04:17:35;;;;;;;22.87;7.27;;;5.60;99.90;;;;;;5038129;28;20241;-81
2023/03/07 04:20:03;;;;;;;20.87;7.10;;;5.60;99.90;;;;;;5032187;28;20327;-80
2023/03/07 04:22:31;;;;;;;21.77;7.27;;;5.50;99.90;;;;;;5031351;28;20724;-80
2023/03/07 04:24:58;;;;;;;20.23;7.10;;;5.90;99.90;;;;;;5031672;28;20246;-80
2023/03/07 04:27:26;;;;;;;22.53;7.83;;;6.20;99.90;;;;;;5037751;28;20234;-81
2023/03/07 04:29:53;;;;;;;22.77;8.30;;;5.50;99.90;;;;;;5068512;28;20209;-80
2023/03/07 04:32:23;;;;;;;24.77;10.10;;;5.50;99.90;;;;;;5050830;28;20548;-80
2023/03/07 04:34:50;;;;;;;27.03;9.67;;;5.50;99.90;;;;;;5049525;28;20788;-80
2023/03/07 04:37:17;;;;;;;29.83;9.67;;;5.40;99.90;;;;;;5050391;28;20267;-80
2023/03/07 04:39:44;;;;;;;22.50;8.53;;;5.50;99.90;;;;;;5049681;28;20206;-80
2023/03/07 04:42:11;;;;;;;23.77;8.93;;;5.60;99.90;;;;;;5035287;28;20214;-80
2023/03/07 04:44:38;;;;;;;24.77;9.73;;;5.40;99.90;;;;;;5032996;28;20701;-81
2023/03/07 04:47:05;;;;;;;28.87;10.67;;;5.50;99.90;;;;;;5038972;28;20223;-81
2023/03/07 04:49:36;;;;;;;26.53;10.80;;;5.40;99.90;;;;;;5029851;28;20207;-82
2023/03/07 04:52:05;;;;;;;27.57;9.90;;;5.50;99.90;;;;;;5050260;28;20298;-81
2023/03/07 04:54:33;;;;;;;28.40;10.47;;;5.40;99.90;;;;;;5051985;28;20287;-81
2023/03/07 04:57:02;;;;;;;28.90;10.13;;;5.40;99.90;;;;;;5050346;28;20736;-81
2023/03/07 04:59:29;;;;;;;28.23;10.60;;;5.70;99.90;;;;;;5033755;28;20213;-81
2023/03/07 05:01:57;;;;;;;27.73;10.47;;;5.40;99.90;;;;;;5036287;28;20232;-81
2023/03/07 05:04:24;;;;;;;26.03;10.37;;;5.40;99.90;;;;;;5040310;28;20208;-81
2023/03/07 05:06:52;;;;;;;30.10;10.47;;;5.40;99.90;;;;;;5047586;28;20222;-81
2023/03/07 05:09:19;;;;;;;30.67;11.63;;;5.70;99.90;;;;;;5026551;28;20213;-81
2023/03/07 05:11:46;;;;;;;25.90;9.90;;;5.30;99.90;;;;;;5060995;28;20700;-81
2023/03/07 05:14:13;;;;;;;31.10;10.40;;;5.50;99.90;;;;;;5050114;28;20243;-81
2023/03/07 05:16:41;;;;;;;22.37;9.20;;;5.30;99.90;;;;;;5062745;28;20224;-81
2023/03/07 05:19:08;;;;;;;25.37;9.30;;;5.20;99.90;;;;;;5057182;28;20299;-81
2023/03/07 05:21:38;;;;;;;26.13;10.13;;;5.30;99.90;;;;;;5054875;28;20677;-81
2023/03/07 05:24:07;;;;;;;23.57;9.30;;;5.80;99.90;;;;;;5038146;28;20224;-81
2023/03/07 05:26:36;;;;;;;29.83;11.03;;;5.30;99.90;;;;;;5041920;28;20299;-82
2023/03/07 05:29:04;;;;;;;29.50;11.27;;;5.20;99.90;;;;;;5036826;28;20305;-82
2023/03/07 05:31:31;;;;;;;30.20;11.53;;;5.30;99.90;;;;;;5032985;28;20210;-81
2023/03/07 05:33:58;;;;;;;26.60;10.30;;;5.20;99.90;;;;;;5040537;28;20237;-81
2023/03/07 05:36:25;;;;;;;39.53;13.00;;;5.70;99.90;;;;;;5046095;28;20286;-83
2023/03/07 05:38:55;;;;;;;26.20;10.47;;;5.50;99.90;;;;;;5040875;28;20215;-83
2023/03/07 05:41:24;;;;;;;31.07;12.90;;;;;;;;;;5041952;28;20264;-83
2023/03/07 05:43:51;;;;;;;28.27;11.10;;;4.60;99.90;;;;;;5052105;28;20201;-83
2023/03/07 05:46:19;;;;;;;31.00;11.17;;;5.50;99.90;;;;;;5043602;28;20265;-83
2023/03/07 05:48:46;;;;;;;28.30;11.83;;;5.30;99.90;;;;;;5054459;28;20918;-84
2023/03/07 05:51:13;;;;;;;24.87;10.93;;;5.40;99.90;;;;;;5064513;28;20678;-84
2023/03/07 05:53:42;;;;;;;25.67;9.70;;;6.00;99.90;;;;;;5039113;28;20203;-83
2023/03/07 05:56:09;;;;;;;28.70;11.37;;;5.40;99.90;;;;;;5050594;28;20248;-84
2023/03/07 05:58:39;;;;;;;27.33;11.60;;;5.70;99.90;;;;;;5038275;28;20883;-84
2023/03/07 06:01:06;;;;;;;24.80;9.60;;;6.10;99.90;;;;;;5041395;28;20201;-84
2023/03/07 06:03:34;;;;;;;31.50;10.03;;;5.30;99.90;;;;;;5064245;28;20878;-84
2023/03/07 06:06:04;;;;;;;19.93;8.90;;;6.20;99.90;;;;;;5071496;28;20272;-82
2023/03/07 06:08:31;;;;;;;19.97;8.47;;;5.20;99.90;;;;;;5082162;28;20257;-83
2023/03/07 06:11:00;;;;;;;24.07;10.80;;;5.40;99.90;;;;;;5076619;28;20167;-81
2023/03/07 06:13:33;;;;;;;22.40;9.57;;;5.30;99.90;;;;;;5053803;28;20269;-82
2023/03/07 06:16:01;;;;;;;21.70;10.00;;;5.20;99.90;;;;;;5078399;28;20179;-82
2023/03/07 06:18:28;;;;;;;24.63;9.50;;;5.30;99.90;;;;;;5067988;28;20206;-83
2023/03/07 06:20:57;;;;;;;24.17;8.50;;;5.30;99.90;;;;;;5042684;28;20219;-82
2023/03/07 06:23:26;;;;;;;25.33;7.70;;;5.30;99.90;;;;;;5045231;28;20270;-83
2023/03/07 06:25:53;;;;;;;29.77;11.30;;;5.20;99.90;;;;;;5053125;28;20223;-82
2023/03/07 06:28:20;;;;;;;31.43;10.43;;;5.30;99.90;;;;;;5065433;28;20219;-82
2023/03/07 06:30:52;;;;;;;31.93;11.77;;;5.30;99.90;;;;;;5047321;28;20234;-82
2023/03/07 06:33:33;;;;;;;27.60;11.27;;;5.30;99.90;;;;;;5050852;28;20251;-82
2023/03/07 06:36:10;;;;;;;25.40;9.33;;;5.50;99.90;;;;;;5072416;28;20188;-82
2023/03/07 06:38:50;;;;;;;29.00;10.83;;;6.40;99.90;;;;;;5049297;28;20206;-83
2023/03/07 06:41:24;;;;;;;26.53;11.00;;;5.40;99.90;;;;;;5040991;28;20250;-83
2023/03/07 06:43:59;;;;;;;29.67;11.67;;;5.30;99.90;;;;;;5041699;28;20294;-82
2023/03/07 06:46:30;;;;;;;29.73;10.83;;;5.30;99.90;;;;;;5057033;28;20254;-82
2023/03/07 06:49:02;;;;;;;31.43;12.67;;;5.50;99.90;;;;;;5054532;28;20232;-83
2023/03/07 06:51:30;;;;;;;28.97;10.53;;;5.50;99.90;;;;;;5055065;28;20221;-83
2023/03/07 06:53:59;;;;;;;27.50;11.53;;;6.20;99.90;;;;;;5068737;28;20320;-82
2023/03/07 06:56:33;;;;;;;31.57;12.00;;;5.50;99.90;;;;;;5044203;28;20237;-83
2023/03/07 06:59:11;;;;;;;32.20;12.17;;;5.50;99.90;;;;;;5056527;28;20197;-83
2023/03/07 07:01:48;;;;;;;36.77;12.27;;;5.70;99.90;;;;;;5057118;28;20234;-83
2023/03/07 07:04:23;;;;;;;31.83;12.10;;;5.50;99.90;;;;;;5058857;28;20216;-83
2023/03/07 07:06:58;;;;;;;28.23;11.57;;;5.60;99.90;;;;;;5054448;28;20293;-83
2023/03/07 07:09:29;;;;;;;29.07;11.67;;;5.50;99.90;;;;;;5061684;28;20661;-82
2023/03/07 07:12:04;;;;;;;24.27;10.80;;;5.60;99.90;;;;;;5056457;28;20209;-83
2023/03/07 07:14:34;;;;;;;26.17;11.13;;;5.50;99.90;;;;;;5063971;28;20209;-84
2023/03/07 07:17:12;;;;;;;22.77;9.97;;;5.60;99.90;;;;;;5053529;28;20217;-83
2023/03/07 07:19:48;;;;;;;25.37;10.67;;;5.60;99.90;;;;;;5062020;28;20226;-83
2023/03/07 07:22:21;;;;;;;27.00;11.67;;;5.60;99.90;;;;;;5055015;28;20265;-84
2023/03/07 07:24:55;;;;;;;24.73;11.33;;;5.90;99.90;;;;;;5060297;28;20699;-84
2023/03/07 07:27:22;;;;;;;26.50;11.47;;;5.70;99.90;;;;;;5055409;28;20318;-83
2023/03/07 07:30:05;;;;;;;29.10;10.83;;;5.70;99.90;;;;;;5056119;28;20216;-83
2023/03/07 07:32:39;;;;;;;23.10;9.13;;;5.70;99.90;;;;;;5048569;28;20219;-83
2023/03/07 07:35:18;;;;;;;26.10;11.10;;;5.80;99.90;;;;;;5056599;28;20674;-83
2023/03/07 07:37:50;;;;;;;22.90;9.47;;;5.80;99.90;;;;;;5051831;28;20219;-83
2023/03/07 07:40:19;;;;;;;27.90;11.10;;;;;;;;;;5045144;28;20283;-83
2023/03/07 07:42:53;;;;;;;26.70;11.13;;;5.80;99.90;;;;;;5049185;28;20261;-83
2023/03/07 07:45:55;;;;;;;30.90;11.90;;;5.80;99.90;;;;;;5056085;28;20206;-82
2023/03/07 07:48:25;;;;;;;33.57;11.70;;;5.80;99.90;;;;;;5050556;28;20278;-83
2023/03/07 07:51:07;;;;;;;25.37;9.87;;;6.50;99.90;;;;;;5055069;28;20219;-82
2023/03/07 07:53:50;;;;;;;25.43;10.73;;;5.90;99.90;;;;;;5065914;28;20260;-82
2023/03/07 07:56:19;;;;;;;36.80;11.40;;;5.90;99.90;;;;;;5053770;28;20248;-83
2023/03/07 07:58:47;;;;;;;31.27;11.60;;;5.90;99.90;;;;;;5066383;28;20203;-83
2023/03/07 08:01:17;;;;;;;26.70;11.00;;;5.80;99.90;;;;;;5047346;28;20233;-82
2023/03/07 08:03:53;;;;;;;27.50;11.53;;;;;;;;;;5061426;28;20197;-83
2023/03/07 08:06:29;;;;;;;31.13;12.03;;;5.90;99.90;;;;;;5056468;28;20205;-83
2023/03/07 08:09:07;;;;;;;29.63;10.53;;;5.90;99.90;;;;;;5058090;28;20232;-82
2023/03/07 08:11:42;;;;;;;28.43;10.30;;;5.90;99.90;;;;;;5057850;28;20207;-82
2023/03/07 08:14:12;;;;;;;32.07;12.17;;;5.90;99.90;;;;;;5046863;28;20259;-82
2023/03/07 08:16:50;;;;;;;30.30;10.63;;;5.90;99.90;;;;;;5057400;28;20241;-82
2023/03/07 08:19:27;;;;;;;29.27;10.77;;;5.80;99.90;;;;;;5057394;28;20214;-82
2023/03/07 08:22:06;;;;;;;33.00;11.30;;;6.10;99.90;;;;;;5042469;28;20264;-82
2023/03/07 08:24:37;;;;;;;29.37;10.43;;;5.90;99.90;;;;;;5046441;28;20295;-82
2023/03/07 08:27:18;;;;;;;29.20;10.30;;;5.90;99.90;;;;;;5048703;28;20227;-82
2023/03/07 08:29:49;;;;;;;28.43;11.10;;;5.90;99.90;;;;;;5054357;28;20203;-81
2023/03/07 08:32:20;;;;;;;32.37;12.10;;;5.90;99.90;;;;;;5046298;28;20220;-83
2023/03/07 08:35:13;;;;;;;26.63;10.90;;;5.90;99.90;;;;;;5045725;28;20228;-82
2023/03/07 08:37:58;;;;;;;27.23;10.47;;;5.90;99.90;;;;;;5051850;28;20767;-83
2023/03/07 08:40:27;;;;;;;27.20;10.90;;;5.90;99.90;;;;;;5040975;28;20215;-82
2023/03/07 08:43:00;;;;;;;33.80;12.20;;;5.90;99.90;;;;;;5039572;28;20241;-82
2023/03/07 08:45:28;;;;;;;29.80;10.90;;;5.90;99.90;;;;;;5039573;28;20214;-82
2023/03/07 08:47:59;;;;;;;27.57;10.03;;;6.20;99.90;;;;;;5044750;28;20233;-82
2023/03/07 08:50:28;;;;;;;32.00;12.20;;;5.80;99.90;;;;;;5058788;28;20218;-83
2023/03/07 08:53:00;;;;;;;35.33;11.83;;;5.70;99.90;;;;;;5048945;28;20291;-83
2023/03/07 08:55:27;;;;;;;30.53;12.00;;;5.80;99.90;;;;;;5030097;28;20288;-84
2023/03/07 08:57:58;;;;;;;33.63;12.63;;;5.80;99.90;;;;;;5039569;28;20234;-83
2023/03/07 09:00:30;;;;;;;27.70;10.47;;;5.80;99.90;;;;;;5044659;28;20294;-85
2023/03/07 09:03:00;;;;;;;28.93;10.27;;;5.70;99.90;;;;;;5051708;28;20242;-84
2023/03/07 09:05:30;;;;;;;19.30;6.60;;;5.90;99.90;;;;;;5064426;28;20259;-84
2023/03/07 09:08:07;;;;;;;20.83;5.40;;;5.70;99.90;;;;;;5050669;28;20227;-84
2023/03/07 09:10:39;;;;;;;18.23;4.83;;;5.60;99.90;;;;;;5062439;28;20229;-84
2023/03/07 09:13:06;;;;;;;19.33;5.17;;;5.70;99.90;;;;;;5051588;28;20276;-83
2023/03/07 09:15:34;;;;;;;18.27;5.57;;;5.30;99.90;;;;;;5042662;28;20308;-84
2023/03/07 09:18:04;;;;;;;20.37;5.30;;;5.10;99.90;;;;;;5056233;28;20277;-83
2023/03/07 09:20:31;;;;;;;18.60;4.43;;;5.10;99.90;;;;;;5055243;28;20765;-84
2023/03/07 09:23:04;;;;;;;17.23;5.20;;;5.00;99.90;;;;;;5055488;28;20204;-83
2023/03/07 09:25:33;;;;;;;18.27;4.97;;;5.00;99.90;;;;;;5036634;28;20237;-83
2023/03/07 09:28:05;;;;;;;17.83;4.27;;;5.00;99.90;;;;;;5038185;28;20252;-84
2023/03/07 09:30:34;;;;;;;16.30;4.30;;;5.10;99.90;;;;;;5056272;28;20198;-84
2023/03/07 09:33:01;;;;;;;22.33;5.33;;;5.10;99.90;;;;;;5051260;28;20311;-82
2023/03/07 09:35:30;;;;;;;18.67;5.03;;;5.10;99.90;;;;;;5075099;28;20202;-83
2023/03/07 09:38:08;;;;;;;16.77;4.87;;;5.20;99.90;;;;;;5033402;28;20238;-83
2023/03/07 09:40:38;;;;;;;16.37;4.23;;;5.30;99.90;;;;;;5055600;28;20202;-83
2023/03/07 09:43:13;;;;;;;21.97;5.90;;;5.30;99.90;;;;;;5040593;28;20226;-84
2023/03/07 09:45:59;;;;;;;21.40;5.30;;;5.30;99.90;;;;;;5040188;28;20250;-84
2023/03/07 09:49:00;;;;;;;19.50;4.40;;;5.40;99.90;;;;;;5068179;28;20225;-85
2023/03/07 09:51:36;;;;;;;20.50;5.13;;;5.40;99.90;;;;;;5051716;28;20214;-84
2023/03/07 09:54:06;;;;;;;21.87;5.60;;;5.40;99.90;;;;;;5052317;28;20234;-85
2023/03/07 09:56:40;;;;;;;20.60;5.73;;;5.40;99.90;;;;;;5048227;28;20250;-85
2023/03/07 09:59:15;;;;;;;18.67;4.67;;;6.20;99.90;;;;;;5054094;28;20200;-85
2023/03/07 10:01:44;;;;;;;21.70;5.27;;;5.30;99.90;;;;;;5072219;28;20472;-84
2023/03/07 10:04:20;;;;;;;16.33;4.30;;;5.40;99.90;;;;;;5083847;28;20213;-85
2023/03/07 10:06:54;;;;;;;13.87;3.67;;;5.40;99.90;;;;;;5064616;28;20232;-85
2023/03/07 10:09:23;;;;;;;19.17;4.63;;;5.10;99.90;;;;;;5056191;28;20277;-85
2023/03/07 10:12:17;;;;;;;12.47;3.50;;;5.20;99.90;;;;;;5072204;28;20208;-85
2023/03/07 10:14:57;;;;;;;17.33;4.47;;;5.20;99.90;;;;;;5041373;28;20204;-85
2023/03/07 10:17:37;;;;;;;19.33;4.43;;;5.50;99.90;;;;;;5051789;28;20239;-85
2023/03/07 10:20:12;;;;;;;20.53;4.77;;;6.10;99.90;;;;;;5043696;28;20213;-85
2023/03/07 10:22:43;;;;;;;16.90;4.10;;;5.50;99.90;;;;;;5060309;28;20899;-85
2023/03/07 10:25:26;;;;;;;16.73;4.20;;;5.10;99.90;;;;;;5058291;28;20227;-85
2023/03/07 10:28:21;;;;;;;16.13;4.10;;;5.20;99.90;;;;;;5054523;28;20440;-85
2023/03/07 10:30:51;;;;;;;18.70;4.47;;;5.30;99.90;;;;;;5045355;28;20280;-84
2023/03/07 10:33:20;;;;;;;21.73;5.07;;;5.40;99.90;;;;;;5043023;28;20192;-84
2023/03/07 10:35:52;;;;;;;16.73;4.10;;;5.70;99.90;;;;;;5050416;28;20200;-84
2023/03/07 10:38:27;;;;;;;21.47;5.40;;;5.60;99.90;;;;;;5067430;28;20255;-85
2023/03/07 10:40:56;;;;;;;21.70;5.10;;;5.80;99.90;;;;;;5072516;28;20199;-84
2023/03/07 10:43:27;;;;;;;18.40;4.50;;;5.70;99.90;;;;;;5074492;28;20201;-84
2023/03/07 10:46:00;;;;;;;20.40;5.10;;;5.80;99.90;;;;;;5064015;28;20205;-84
2023/03/07 10:48:30;;;;;;;11.70;3.50;;;5.80;99.90;;;;;;5073148;28;20238;-84
2023/03/07 10:51:05;;;;;;;20.57;5.50;;;5.70;99.90;;;;;;5053102;28;20214;-84
2023/03/07 10:53:36;;;;;;;13.70;3.97;;;5.60;99.90;;;;;;5035969;28;20201;-84
2023/03/07 10:56:14;;;;;;;19.07;4.77;;;5.70;99.90;;;;;;5055250;28;20721;-84
2023/03/07 10:59:00;;;;;;;15.90;4.67;;;5.70;99.90;;;;;;5052551;28;20189;-84
2023/03/07 11:01:27;;;;;;;16.83;4.70;;;6.00;99.90;;;;;;5054178;28;20216;-82
2023/03/07 11:03:59;;;;;;;15.57;5.13;;;6.40;99.90;;;;;;5037045;28;20222;-81
2023/03/07 11:06:34;;;;;;;14.07;3.93;;;6.20;99.90;;;;;;5059660;28;20217;-82
2023/03/07 11:09:22;;;;;;;14.50;4.20;;;6.30;99.90;;;;;;5033972;28;20221;-82
2023/03/07 11:11:53;;;;;;;18.83;4.80;;;6.50;99.90;;;;;;5034026;28;20190;-82
2023/03/07 11:14:22;;;;;;;21.70;5.40;;;6.40;99.90;;;;;;5041602;28;20255;-82
2023/03/07 11:16:53;;;;;;;22.13;6.37;;;6.50;99.90;;;;;;5060734;28;20217;-82
2023/03/07 11:19:39;;;;;;;20.33;4.83;;;6.60;99.90;;;;;;5050042;28;20209;-82
2023/03/07 11:22:21;;;;;;;19.43;4.73;;;6.70;99.90;;;;;;5051775;28;20297;-82
2023/03/07 11:24:52;;;;;;;16.50;4.40;;;6.50;99.90;;;;;;5042877;28;20220;-82
2023/03/07 11:27:23;;;;;;;21.17;5.37;;;6.30;99.90;;;;;;5042119;28;20604;-83
2023/03/07 11:32:50;;;;;;;21.23;5.17;;;6.30;99.90;;;;;;5099151;27;20549;-79
2023/03/07 11:35:21;;;;;;;22.57;5.77;;;6.40;99.90;;;;;;5086349;28;20207;-79
2023/03/07 11:37:57;;;;;;;22.97;5.83;;;6.60;99.90;;;;;;5088001;28;20254;-79
2023/03/07 11:40:26;;;;;;;22.57;5.93;;;6.40;99.90;;;;;;5082658;28;20215;-79
2023/03/07 11:43:05;;;;;;;21.60;5.53;;;6.40;99.90;;;;;;5086530;28;20657;-79
2023/03/07 11:45:42;;;;;;;14.20;4.17;;;6.40;99.90;;;;;;5088178;22;20240;-83
2023/03/07 11:48:23;;;;;;;15.43;4.53;;;6.60;99.90;;;;;;5028470;28;20709;-82
2023/03/07 11:50:56;;;;;;;16.07;4.43;;;6.60;99.90;;;;;;5026798;28;20244;-81
2023/03/07 11:53:55;;;;;;;15.73;4.50;;;6.60;99.90;;;;;;5049721;28;20289;-83
2023/03/07 11:56:28;;;;;;;13.07;4.10;;;6.50;99.90;;;;;;5010872;28;20214;-81
2023/03/07 11:59:32;;;;;;;16.90;4.97;;;6.40;99.90;;;;;;5017808;28;20213;-81
2023/03/07 12:02:02;;;;;;;15.03;4.70;;;6.40;99.90;;;;;;5011160;28;20186;-81
2023/03/07 12:04:57;;;;;;;15.13;4.27;;;6.40;99.90;;;;;;5013173;28;20244;-82
2023/03/07 12:07:47;;;;;;;15.00;4.10;;;6.30;99.90;;;;;;5010378;28;20211;-81
2023/03/07 12:10:29;;;;;;;14.30;4.10;;;6.20;99.90;;;;;;5033671;28;20216;-81
2023/03/07 12:13:10;;;;;;;15.00;4.70;;;6.20;99.90;;;;;;5012960;28;20634;-81
2023/03/07 12:15:43;;;;;;;17.70;5.13;;;6.20;99.90;;;;;;5019657;28;20221;-83
2023/03/07 12:18:34;;;;;;;15.60;5.03;;;6.20;99.90;;;;;;5026103;28;20206;-81
2023/03/07 12:21:19;;;;;;;17.73;4.70;;;6.30;99.90;;;;;;5024418;28;20209;-81
2023/03/07 12:23:48;;;;;;;16.47;4.20;;;6.20;99.90;;;;;;5019275;28;20228;-81
2023/03/07 12:26:21;;;;;;;14.33;3.70;;;6.20;99.90;;;;;;5012008;28;20233;-82
2023/03/07 12:28:52;;;;;;;13.87;3.90;;;6.20;99.90;;;;;;5006279;28;20213;-81
2023/03/07 12:31:24;;;;;;;17.83;4.70;;;6.10;99.90;;;;;;5016302;28;20309;-81
2023/03/07 12:33:58;;;;;;;16.37;4.67;;;6.10;99.90;;;;;;5012760;28;20236;-81
2023/03/07 12:36:34;;;;;;;16.47;4.73;;;6.10;99.90;;;;;;5029179;28;20245;-82
2023/03/07 12:39:09;;;;;;;16.20;4.17;;;6.20;99.90;;;;;;5020718;28;20288;-81
2023/03/07 12:41:47;;;;;;;14.47;4.47;;;6.20;99.90;;;;;;5016284;28;20673;-82
2023/03/07 12:44:21;;;;;;;19.00;4.93;;;6.20;99.90;;;;;;4997639;28;20247;-82
2023/03/07 12:46:57;;;;;;;13.00;4.13;;;6.40;99.90;;;;;;5000029;28;20218;-81
2023/03/07 12:49:35;;;;;;;15.37;4.63;;;6.40;99.90;;;;;;5000698;28;20679;-81
2023/03/07 12:52:12;;;;;;;15.97;4.47;;;6.40;99.90;;;;;;5004817;28;20591;-85
2023/03/07 12:54:43;;;;;;;15.13;3.97;;;6.40;99.90;;;;;;5033021;28;20198;-83
2023/03/07 12:57:13;;;;;;;14.33;4.40;;;6.30;99.90;;;;;;5036952;28;20240;-83
2023/03/07 12:59:43;;;;;;;13.73;3.90;;;6.20;99.90;;;;;;5003710;28;20674;-84
2023/03/07 13:02:16;;;;;;;20.57;5.37;;;6.30;99.90;;;;;;5014470;28;20222;-82
2023/03/07 13:04:44;;;;;;;16.73;5.43;;;6.10;99.90;;;;;;4992943;28;20222;-82
2023/03/07 13:07:15;;;;;;;14.03;4.50;;;6.10;99.90;;;;;;5001236;28;20289;-82
2023/03/07 13:09:45;;;;;;;15.30;4.70;;;6.30;99.90;;;;;;5000441;28;20257;-82
2023/03/07 13:12:34;;;;;;;14.93;4.20;;;6.40;99.90;;;;;;5003226;28;20240;-83
2023/03/07 13:15:03;;;;;;;15.87;5.17;;;6.50;99.90;;;;;;5022507;28;20277;-82
2023/03/07 13:17:57;;;;;;;15.30;4.40;;;6.50;99.90;;;;;;5002121;28;20226;-80
2023/03/07 13:20:40;;;;;;;17.47;4.67;;;6.60;99.90;;;;;;4991005;28;20216;-83
2023/03/07 13:23:28;;;;;;;12.27;3.50;;;6.60;99.90;;;;;;5015125;28;20226;-81
2023/03/07 13:26:01;;;;;;;16.60;3.97;;;6.60;99.90;;;;;;5004671;28;20209;-81
2023/03/07 13:28:44;;;;;;;16.73;4.37;;;6.60;99.90;;;;;;5012884;28;20209;-81
2023/03/07 13:31:44;;;;;;;18.90;4.60;;;6.60;99.90;;;;;;5018582;28;20272;-81
2023/03/07 13:34:45;;;;;;;18.43;4.63;;;6.70;99.90;;;;;;5002620;28;20717;-81
2023/03/07 13:37:49;;;;;;;14.60;4.37;;;6.50;99.90;;;;;;5001360;28;20231;-82
2023/03/07 13:40:47;;;;;;;15.50;4.63;;;6.60;99.90;;;;;;4995413;28;20544;-83
2023/03/07 13:43:55;;;;;;;13.27;4.97;;;6.50;99.90;;;;;;5001963;28;20241;-81
2023/03/07 13:46:53;;;;;;;17.73;4.83;;;6.60;99.90;;;;;;4999793;28;20214;-82
2023/03/07 13:49:47;;;;;;;15.07;4.73;;;6.40;99.90;;;;;;5015623;28;20217;-82
2023/03/07 13:52:52;;;;;;;20.53;5.50;;;6.60;99.90;;;;;;5007530;28;20299;-81
2023/03/07 13:55:25;;;;;;;19.60;5.67;;;6.50;99.90;;;;;;5014530;28;20206;-83
2023/03/07 13:57:56;;;;;;;19.33;6.30;;;6.50;99.90;;;;;;5001145;28;20221;-81
2023/03/07 14:00:32;;;;;;;17.03;5.33;;;6.80;99.90;;;;;;5001605;28;20222;-81
2023/03/07 14:03:00;;;;;;;19.23;5.70;;;6.50;99.90;;;;;;5020420;28;20226;-82
2023/03/07 14:05:28;;;;;;;19.93;6.00;;;6.60;99.90;;;;;;5001914;28;20248;-82
2023/03/07 14:07:58;;;;;;;20.77;6.27;;;6.70;99.90;;;;;;5001465;28;20219;-81
2023/03/07 14:10:29;;;;;;;18.90;5.90;;;6.60;99.90;;;;;;4999796;28;20325;-81
2023/03/07 14:13:26;;;;;;;20.97;5.57;;;6.60;99.90;;;;;;5006476;28;20258;-82
2023/03/07 14:16:07;;;;;;;18.03;5.43;;;6.50;99.90;;;;;;5005302;28;20214;-83
2023/03/07 14:18:50;;;;;;;21.17;6.53;;;6.50;99.90;;;;;;4998376;28;20580;-82
2023/03/07 14:21:26;;;;;;;18.37;5.80;;;6.40;99.90;;;;;;5004352;28;20294;-83
2023/03/07 14:24:09;;;;;;;17.97;5.53;;;6.30;99.90;;;;;;4989912;28;20312;-83
2023/03/07 14:26:40;;;;;;;17.00;5.13;;;6.20;99.90;;;;;;5014605;28;20224;-82
2023/03/07 14:29:17;;;;;;;19.60;5.37;;;6.10;99.90;;;;;;4996713;28;20256;-82
2023/03/07 14:31:46;;;;;;;16.07;4.67;;;6.10;99.90;;;;;;4998726;28;20226;-81
2023/03/07 14:34:18;;;;;;;15.03;4.90;;;6.00;99.90;;;;;;4990179;28;20313;-82
2023/03/07 14:36:49;;;;;;;20.57;5.63;;;5.90;99.90;;;;;;4998389;28;20281;-83
2023/03/07 14:39:16;;;;;;;17.00;5.10;;;5.80;99.90;;;;;;4998020;28;20249;-83
2023/03/07 14:41:50;;;;;;;15.33;5.07;;;5.80;99.90;;;;;;4998234;28;20228;-83
2023/03/07 14:44:52;;;;;;;19.43;5.27;;;5.70;99.90;;;;;;5004758;28;20661;-83
2023/03/07 14:47:50;;;;;;;21.07;5.97;;;5.60;99.90;;;;;;5002190;28;20210;-82
2023/03/07 14:50:19;;;;;;;19.43;5.67;;;5.70;99.90;;;;;;4999333;28;20345;-83
2023/03/07 14:52:48;;;;;;;17.77;5.43;;;5.70;99.90;;;;;;5019541;28;20248;-82